Crotone Airport LIBC

Flugplatz Daten

Name: Crotone Airport

Ident: LIBC

Lat: 38,99720001

Long: 17,0802002

Platzhöhe: 522 ft

IataCode: CRV

City: Crotone

Homepage: http://www.aeroporto.kr.it/cartaservizi_eng.asp

Metar

2022/08/13 17:50
LIBC 131750Z 24011KT CAVOK 27/17 Q1010

Taf

2022/08/13 12:21
TAF LIBC 131100Z 1312/1412 10010KT 9999 FEW030
BECMG 1316/1318 20008KT
BECMG 1406/1408 01010KT
Gewünschte Webcam nicht vorhanden? Dann fügen Sie eine hinzu. Sie wird dann so schnell wie möglich freigeschaltet
Url: Title: